createdAt,value
2022-08-27T00:02:07.806Z,22.27
2022-08-27T00:04:36.544Z,21.80
2022-08-27T00:07:06.340Z,23.33
2022-08-27T00:09:34.525Z,19.23
2022-08-27T00:12:05.144Z,25.08
2022-08-27T00:14:34.082Z,20.00
2022-08-27T00:17:02.430Z,23.70
2022-08-27T00:19:31.104Z,20.20
2022-08-27T00:21:59.849Z,25.33
2022-08-27T00:24:28.017Z,25.75
2022-08-27T00:26:56.467Z,17.48
2022-08-27T00:29:26.632Z,25.95
2022-08-27T00:31:58.630Z,18.80
2022-08-27T00:34:27.748Z,17.58
2022-08-27T00:36:55.985Z,19.25
2022-08-27T00:39:24.470Z,23.85
2022-08-27T00:41:52.639Z,27.70
2022-08-27T00:44:20.769Z,26.08
2022-08-27T00:46:54.257Z,20.63
2022-08-27T00:49:26.134Z,19.63
2022-08-27T00:51:58.735Z,17.85
2022-08-27T00:54:28.195Z,22.52
2022-08-27T00:56:57.207Z,19.13
2022-08-27T00:59:31.193Z,18.60
2022-08-27T01:02:20.854Z,26.25
2022-08-27T01:04:54.080Z,24.92
2022-08-27T01:07:24.339Z,26.98
2022-08-27T01:09:59.291Z,23.80
2022-08-27T01:12:27.997Z,25.40
2022-08-27T01:14:57.297Z,18.40
2022-08-27T01:17:27.765Z,18.92
2022-08-27T01:19:59.974Z,17.52
2022-08-27T01:22:36.064Z,23.52
2022-08-27T01:25:09.881Z,25.73
2022-08-27T01:27:39.121Z,17.45
2022-08-27T01:30:09.817Z,22.90
2022-08-27T01:32:38.875Z,15.25
2022-08-27T01:35:10.655Z,22.42
2022-08-27T01:37:40.178Z,21.50
2022-08-27T01:40:13.500Z,21.02
2022-08-27T01:42:45.655Z,22.45
2022-08-27T01:45:17.031Z,24.70
2022-08-27T01:47:45.235Z,23.48
2022-08-27T01:50:18.439Z,19.80
2022-08-27T01:52:47.478Z,21.02
2022-08-27T01:55:20.939Z,25.25
2022-08-27T01:57:50.339Z,20.58
2022-08-27T02:00:21.964Z,23.77
2022-08-27T02:02:50.484Z,16.10
2022-08-27T02:05:19.414Z,19.75
2022-08-27T02:07:48.106Z,20.67
2022-08-27T02:10:21.865Z,23.52
2022-08-27T02:15:18.657Z,22.52
2022-08-27T02:17:47.912Z,21.30
2022-08-27T02:20:18.217Z,19.95
2022-08-27T02:22:46.623Z,20.30
2022-08-27T02:25:20.270Z,22.15
2022-08-27T02:27:50.170Z,19.45
2022-08-27T02:30:22.124Z,16.95
2022-08-27T02:32:53.107Z,20.27
2022-08-27T02:35:23.817Z,20.38
2022-08-27T02:37:52.749Z,20.75
2022-08-27T02:40:24.700Z,21.42
2022-08-27T02:42:53.085Z,20.23
2022-08-27T02:45:21.754Z,18.13
2022-08-27T02:47:49.905Z,26.15
2022-08-27T02:50:18.945Z,26.35
2022-08-27T02:52:47.698Z,18.77
2022-08-27T02:55:17.293Z,21.63
2022-08-27T02:57:47.443Z,17.48
2022-08-27T03:00:19.713Z,21.30
2022-08-27T03:02:48.432Z,24.25
2022-08-27T03:05:18.358Z,23.17
2022-08-27T03:07:47.074Z,16.30
2022-08-27T03:10:17.833Z,20.75
2022-08-27T03:12:48.040Z,24.98
2022-08-27T03:15:18.221Z,19.05
2022-08-27T03:18:04.371Z,20.15
2022-08-27T03:20:33.430Z,19.35
2022-08-27T03:23:02.048Z,28.63
2022-08-27T03:25:31.649Z,22.42
2022-08-27T03:28:03.003Z,18.63
2022-08-27T03:30:31.913Z,25.52
2022-08-27T03:32:59.995Z,22.77
2022-08-27T03:35:28.246Z,27.42
2022-08-27T03:37:58.590Z,27.88
2022-08-27T03:40:26.865Z,29.35
2022-08-27T03:42:55.385Z,22.23
2022-08-27T03:45:24.961Z,23.60
2022-08-27T03:47:53.543Z,23.52
2022-08-27T03:50:22.350Z,18.80
2022-08-27T03:52:50.687Z,29.77
2022-08-27T03:55:18.988Z,26.05
2022-08-27T03:57:47.241Z,22.50
2022-08-27T04:00:16.205Z,24.77
2022-08-27T04:02:46.128Z,20.25
2022-08-27T04:05:15.392Z,19.48
2022-08-27T04:07:44.826Z,26.88
2022-08-27T04:10:14.909Z,25.50
2022-08-27T04:12:43.698Z,23.38
2022-08-27T04:15:13.714Z,23.15
2022-08-27T04:17:42.733Z,23.00
2022-08-27T04:20:34.687Z,26.60
2022-08-27T04:23:01.030Z,26.80
2022-08-27T04:25:29.563Z,26.15
2022-08-27T04:27:57.740Z,19.08
2022-08-27T04:30:25.793Z,18.13
2022-08-27T04:32:53.941Z,18.10
2022-08-27T04:35:24.502Z,21.90
2022-08-27T04:37:52.627Z,20.40
2022-08-27T04:40:20.892Z,21.73
2022-08-27T04:42:48.976Z,22.23
2022-08-27T04:45:17.560Z,22.13
2022-08-27T04:47:45.677Z,25.80
2022-08-27T04:50:14.216Z,25.08
2022-08-27T04:52:44.206Z,23.88
2022-08-27T04:55:12.370Z,21.98
2022-08-27T04:57:40.369Z,20.35
2022-08-27T05:00:09.712Z,22.65
2022-08-27T05:02:37.905Z,20.85
2022-08-27T05:05:07.027Z,21.10
2022-08-27T05:07:35.061Z,23.10
2022-08-27T05:10:04.569Z,20.02
2022-08-27T05:12:32.666Z,21.77
2022-08-27T05:15:00.747Z,22.08
2022-08-27T05:17:31.455Z,23.23
2022-08-27T05:19:59.621Z,18.30
2022-08-27T05:22:27.985Z,21.60
2022-08-27T05:24:56.408Z,19.95
2022-08-27T05:27:26.229Z,30.42
2022-08-27T05:29:54.857Z,22.15
2022-08-27T05:32:22.858Z,18.42
2022-08-27T05:34:50.997Z,25.10
2022-08-27T05:37:19.098Z,28.85
2022-08-27T05:39:47.131Z,20.25
2022-08-27T05:42:15.535Z,26.58
2022-08-27T05:44:45.066Z,27.25
2022-08-27T05:47:13.187Z,26.98
2022-08-27T05:49:41.677Z,24.75
2022-08-27T05:52:10.841Z,30.13
2022-08-27T05:54:40.037Z,22.70
2022-08-27T05:57:08.470Z,25.23
2022-08-27T05:59:54.233Z,27.33
2022-08-27T06:02:24.462Z,26.55
2022-08-27T06:04:53.746Z,20.45
2022-08-27T06:07:22.135Z,30.05
2022-08-27T06:09:50.223Z,26.65
2022-08-27T06:12:18.367Z,26.88
2022-08-27T06:14:46.548Z,28.95
2022-08-27T06:17:14.665Z,25.02
2022-08-27T06:19:45.955Z,28.58
2022-08-27T06:22:14.785Z,30.58
2022-08-27T06:24:43.781Z,27.70
2022-08-27T06:27:14.312Z,23.63
2022-08-27T06:29:43.313Z,25.92
2022-08-27T06:32:13.659Z,25.23
2022-08-27T06:34:43.625Z,24.05
2022-08-27T06:37:12.139Z,28.60
2022-08-27T06:39:40.686Z,28.15
2022-08-27T06:42:12.323Z,26.10
2022-08-27T06:44:40.713Z,30.30
2022-08-27T06:47:09.175Z,27.70
2022-08-27T06:49:40.144Z,28.33
2022-08-27T06:52:09.989Z,26.27
2022-08-27T06:54:39.929Z,36.30
2022-08-27T06:57:08.043Z,26.92
2022-08-27T06:59:36.206Z,24.48
2022-08-27T07:02:06.921Z,27.27
2022-08-27T07:04:35.030Z,32.53
2022-08-27T07:07:03.456Z,33.78
2022-08-27T07:09:33.236Z,31.05
2022-08-27T07:12:02.005Z,32.08
2022-08-27T07:14:35.608Z,27.08
2022-08-27T07:17:07.802Z,27.15
2022-08-27T07:19:41.287Z,30.92
2022-08-27T07:22:09.674Z,32.55
2022-08-27T07:24:39.249Z,35.67
2022-08-27T07:27:08.046Z,30.98
2022-08-27T07:29:36.184Z,24.60
2022-08-27T07:32:04.697Z,28.45
2022-08-27T07:34:32.677Z,33.97
2022-08-27T07:37:00.826Z,28.98
2022-08-27T07:39:29.083Z,30.52
2022-08-27T07:42:17.128Z,26.23
2022-08-27T07:44:45.188Z,27.02
2022-08-27T07:47:13.901Z,22.92
2022-08-27T07:49:42.401Z,24.13
2022-08-27T07:52:11.363Z,21.88
2022-08-27T07:54:39.385Z,27.20
2022-08-27T07:57:09.291Z,29.88
2022-08-27T07:59:37.837Z,23.95
2022-08-27T08:02:06.168Z,27.40
2022-08-27T08:04:34.371Z,26.67
2022-08-27T08:07:02.938Z,26.67
2022-08-27T08:09:32.418Z,31.55
2022-08-27T08:12:00.561Z,29.48
2022-08-27T08:14:32.371Z,23.75
2022-08-27T08:17:02.346Z,22.77
2022-08-27T08:19:33.549Z,28.25
2022-08-27T08:22:05.536Z,27.55
2022-08-27T08:24:33.917Z,22.15
2022-08-27T08:27:06.890Z,29.25
2022-08-27T08:29:37.743Z,24.70
2022-08-27T08:32:06.771Z,22.73
2022-08-27T08:34:36.114Z,24.50
2022-08-27T08:37:05.411Z,28.23
2022-08-27T08:39:33.725Z,23.65
2022-08-27T08:42:04.557Z,31.45
2022-08-27T08:44:35.646Z,27.13
2022-08-27T08:47:14.034Z,20.52
2022-08-27T08:49:51.233Z,28.25
2022-08-27T08:52:40.651Z,26.88
2022-08-27T08:55:17.318Z,24.27
2022-08-27T08:57:53.713Z,26.23
2022-08-27T09:00:22.105Z,27.40
2022-08-27T09:02:55.856Z,29.63
2022-08-27T09:05:27.314Z,33.88
2022-08-27T09:08:28.577Z,34.08
2022-08-27T09:10:57.377Z,31.52
2022-08-27T09:13:29.062Z,24.92
2022-08-27T09:16:01.396Z,32.38
2022-08-27T09:18:31.599Z,30.35
2022-08-27T09:21:09.037Z,24.42
2022-08-27T09:23:45.986Z,31.80
2022-08-27T09:26:23.036Z,28.25
2022-08-27T09:29:14.491Z,26.60
2022-08-27T09:31:43.754Z,23.92
2022-08-27T09:34:13.365Z,26.35
2022-08-27T09:36:54.205Z,21.63
2022-08-27T09:39:29.406Z,25.58
2022-08-27T09:41:58.687Z,29.75
2022-08-27T09:44:27.224Z,26.10
2022-08-27T09:46:58.107Z,23.50
2022-08-27T09:49:28.660Z,36.03
2022-08-27T09:51:57.815Z,25.10
2022-08-27T09:54:38.665Z,23.83
2022-08-27T09:57:08.509Z,24.75
2022-08-27T09:59:38.091Z,30.70
2022-08-27T10:02:20.106Z,31.38
2022-08-27T10:04:52.066Z,29.42
2022-08-27T10:07:27.875Z,30.48
2022-08-27T10:10:10.910Z,27.98
2022-08-27T10:15:15.463Z,28.02
2022-08-27T10:17:53.496Z,29.02
2022-08-27T10:20:30.267Z,33.45
2022-08-27T10:23:11.035Z,32.28
2022-08-27T10:25:46.280Z,27.48
2022-08-27T10:28:25.513Z,35.78
2022-08-27T10:31:08.474Z,37.30
2022-08-27T10:36:23.340Z,34.80
2022-08-27T10:39:02.333Z,27.98
2022-08-27T10:41:35.987Z,31.15
2022-08-27T10:44:23.308Z,27.40
2022-08-27T10:47:04.986Z,33.47
2022-08-27T10:49:43.201Z,24.45
2022-08-27T10:52:19.481Z,28.02
2022-08-27T10:54:54.392Z,33.92
2022-08-27T10:57:55.252Z,27.70
2022-08-27T11:00:25.630Z,39.60
2022-08-27T11:03:00.394Z,34.55
2022-08-27T11:05:31.938Z,39.28
2022-08-27T11:08:07.854Z,31.63
2022-08-27T11:10:42.145Z,35.22
2022-08-27T11:13:14.262Z,35.15
2022-08-27T11:15:47.451Z,37.45
2022-08-27T11:18:22.562Z,36.83
2022-08-27T11:20:57.066Z,29.08
2022-08-27T11:23:30.150Z,30.85
2022-08-27T11:26:02.399Z,34.15
2022-08-27T11:28:38.559Z,37.28
2022-08-27T11:31:14.281Z,36.58
2022-08-27T11:33:49.264Z,32.97
2022-08-27T11:36:41.717Z,30.98
2022-08-27T11:39:23.267Z,37.72
2022-08-27T11:42:03.890Z,32.72
2022-08-27T11:44:33.082Z,41.78
2022-08-27T11:47:13.162Z,31.70
2022-08-27T11:49:48.136Z,36.08
2022-08-27T11:52:25.696Z,39.15
2022-08-27T11:54:59.694Z,29.52
2022-08-27T11:57:31.755Z,38.53
2022-08-27T12:00:13.125Z,34.30
2022-08-27T12:02:41.298Z,36.03
2022-08-27T12:05:26.312Z,35.72
2022-08-27T12:07:54.989Z,41.08
2022-08-27T12:10:39.715Z,30.88
2022-08-27T12:13:22.515Z,32.50
2022-08-27T12:15:59.473Z,32.13
2022-08-27T12:18:43.044Z,41.30
2022-08-27T12:21:23.595Z,35.78
2022-08-27T12:24:13.434Z,32.40
2022-08-27T12:26:56.191Z,31.92
2022-08-27T12:29:43.817Z,30.75
2022-08-27T12:32:26.873Z,38.50
2022-08-27T12:35:03.490Z,35.38
2022-08-27T12:37:36.475Z,35.78
2022-08-27T12:40:16.624Z,46.13
2022-08-27T12:42:50.605Z,34.03
2022-08-27T12:45:24.541Z,36.90
2022-08-27T12:47:55.554Z,40.75
2022-08-27T12:50:27.058Z,40.80
2022-08-27T12:53:19.142Z,33.85
2022-08-27T12:56:01.602Z,37.63
2022-08-27T12:58:44.996Z,34.63
2022-08-27T13:01:32.815Z,31.73
2022-08-27T13:04:01.750Z,43.65
2022-08-27T13:06:33.433Z,41.10
2022-08-27T13:09:03.864Z,32.22
2022-08-27T13:11:34.859Z,37.28
2022-08-27T13:14:11.762Z,44.10
2022-08-27T13:16:48.873Z,35.20
2022-08-27T13:19:23.025Z,49.58
2022-08-27T13:21:52.806Z,48.70
2022-08-27T13:24:29.091Z,33.63
2022-08-27T13:26:57.814Z,36.13
2022-08-27T13:29:28.685Z,45.63
2022-08-27T13:31:58.074Z,48.85
2022-08-27T13:34:29.086Z,29.58
2022-08-27T13:37:00.622Z,36.58
2022-08-27T13:39:29.558Z,48.03
2022-08-27T13:42:01.202Z,40.38
2022-08-27T13:44:34.698Z,38.70
2022-08-27T13:47:05.894Z,35.78
2022-08-27T13:49:40.124Z,45.22
2022-08-27T13:52:30.197Z,31.83
2022-08-27T13:55:05.976Z,41.15
2022-08-27T13:57:43.608Z,73.93
2022-08-27T14:00:17.762Z,34.83
2022-08-27T14:02:56.287Z,40.17
2022-08-27T14:05:34.058Z,41.78
2022-08-27T14:08:11.974Z,38.08
2022-08-27T14:10:43.210Z,31.63
2022-08-27T14:13:15.343Z,44.70
2022-08-27T14:15:46.920Z,45.50
2022-08-27T14:18:42.097Z,39.42
2022-08-27T14:21:10.978Z,38.53
2022-08-27T14:23:39.229Z,31.60
2022-08-27T14:26:10.121Z,40.30
2022-08-27T14:28:38.206Z,35.88
2022-08-27T14:31:07.810Z,43.45
2022-08-27T14:33:36.053Z,29.70
2022-08-27T14:36:04.966Z,32.78
2022-08-27T14:38:34.189Z,38.53
2022-08-27T14:41:02.476Z,36.67
2022-08-27T14:43:35.792Z,31.67
2022-08-27T14:46:04.859Z,30.35
2022-08-27T14:48:36.087Z,27.77
2022-08-27T14:51:13.717Z,34.67
2022-08-27T14:53:41.899Z,36.25
2022-08-27T14:56:10.288Z,31.83
2022-08-27T14:58:38.930Z,39.60
2022-08-27T15:01:07.253Z,35.42
2022-08-27T15:03:40.026Z,30.92
2022-08-27T15:06:08.531Z,30.38
2022-08-27T15:08:37.058Z,31.17
2022-08-27T15:11:05.531Z,27.08
2022-08-27T15:13:34.426Z,31.60
2022-08-27T15:16:07.326Z,28.10
2022-08-27T15:18:37.100Z,31.42
2022-08-27T15:21:05.297Z,31.50
2022-08-27T15:23:33.450Z,31.35
2022-08-27T15:26:01.623Z,35.67
2022-08-27T15:28:30.125Z,42.35
2022-08-27T15:30:58.383Z,31.80
2022-08-27T15:33:26.991Z,33.70
2022-08-27T15:35:59.838Z,42.35
2022-08-27T15:38:31.697Z,33.85
2022-08-27T15:40:59.796Z,33.08
2022-08-27T15:43:28.142Z,31.85
2022-08-27T15:45:56.819Z,37.00
2022-08-27T15:48:25.143Z,33.92
2022-08-27T15:50:53.834Z,29.02
2022-08-27T15:53:26.331Z,31.45
2022-08-27T15:55:54.701Z,37.53
2022-08-27T15:58:22.691Z,24.95
2022-08-27T16:01:01.617Z,29.83
2022-08-27T16:03:36.035Z,33.45
2022-08-27T16:06:05.053Z,32.55
2022-08-27T16:08:39.180Z,27.77
2022-08-27T16:11:10.942Z,34.90
2022-08-27T16:13:39.274Z,29.30
2022-08-27T16:16:08.555Z,34.05
2022-08-27T16:18:37.128Z,29.00
2022-08-27T16:21:06.468Z,35.30
2022-08-27T16:23:37.685Z,31.95
2022-08-27T16:26:06.156Z,33.65
2022-08-27T16:28:35.533Z,37.28
2022-08-27T16:31:04.049Z,27.05
2022-08-27T16:33:32.599Z,31.73
2022-08-27T16:36:01.265Z,29.15
2022-08-27T16:38:29.517Z,29.73
2022-08-27T16:40:59.435Z,25.48
2022-08-27T16:43:28.746Z,30.35
2022-08-27T16:45:59.609Z,24.55
2022-08-27T16:48:45.687Z,32.28
2022-08-27T16:51:17.278Z,39.15
2022-08-27T16:53:47.570Z,42.00
2022-08-27T16:56:18.166Z,28.80
2022-08-27T16:58:49.502Z,32.83
2022-08-27T17:01:20.137Z,28.05
2022-08-27T17:04:08.125Z,31.50
2022-08-27T17:06:39.894Z,28.88
2022-08-27T17:09:08.621Z,27.98
2022-08-27T17:11:41.956Z,24.85
2022-08-27T17:14:12.297Z,28.10
2022-08-27T17:16:41.733Z,32.80
2022-08-27T17:19:14.211Z,26.58
2022-08-27T17:21:46.188Z,31.02
2022-08-27T17:24:14.875Z,34.85
2022-08-27T17:26:45.089Z,24.80
2022-08-27T17:29:13.202Z,25.02
2022-08-27T17:31:43.897Z,31.90
2022-08-27T17:34:16.644Z,30.15
2022-08-27T17:36:45.663Z,30.83
2022-08-27T17:39:14.252Z,35.97
2022-08-27T17:41:46.809Z,32.90
2022-08-27T17:44:21.832Z,32.63
2022-08-27T17:46:50.289Z,34.95
2022-08-27T17:49:19.454Z,29.27
2022-08-27T17:51:48.551Z,38.47
2022-08-27T17:54:28.313Z,33.03
2022-08-27T17:56:58.342Z,36.05
2022-08-27T17:59:26.908Z,31.70
2022-08-27T18:01:55.207Z,39.45
2022-08-27T18:04:23.700Z,30.08
2022-08-27T18:06:51.965Z,38.08
2022-08-27T18:09:20.045Z,30.92
2022-08-27T18:11:48.405Z,27.67
2022-08-27T18:14:19.260Z,42.53
2022-08-27T18:16:48.028Z,38.00
2022-08-27T18:19:16.893Z,29.05
2022-08-27T18:21:46.455Z,29.15
2022-08-27T18:24:16.009Z,37.50
2022-08-27T18:26:45.610Z,26.50
2022-08-27T18:29:15.658Z,33.05
2022-08-27T18:31:45.360Z,32.40
2022-08-27T18:34:18.773Z,31.45
2022-08-27T18:36:48.229Z,29.77
2022-08-27T18:39:16.880Z,24.13
2022-08-27T18:41:45.378Z,27.65
2022-08-27T18:44:17.512Z,27.52
2022-08-27T18:46:47.533Z,25.33
2022-08-27T18:49:15.581Z,39.00
2022-08-27T18:51:49.251Z,32.00
2022-08-27T18:54:20.457Z,37.47
2022-08-27T18:56:48.694Z,31.10
2022-08-27T18:59:17.169Z,27.42
2022-08-27T19:01:45.667Z,45.70
2022-08-27T19:04:16.664Z,36.53
2022-08-27T19:06:44.921Z,33.50
2022-08-27T19:09:13.713Z,29.83
2022-08-27T19:11:41.997Z,27.70
2022-08-27T19:14:10.056Z,30.25
2022-08-27T19:16:44.499Z,30.27
2022-08-27T19:19:16.518Z,37.47
2022-08-27T19:21:49.295Z,36.72
2022-08-27T19:24:19.950Z,26.88
2022-08-27T19:26:48.581Z,28.45
2022-08-27T19:29:16.757Z,28.13
2022-08-27T19:31:45.716Z,31.15
2022-08-27T19:34:15.247Z,33.80
2022-08-27T19:36:44.545Z,28.90
2022-08-27T19:39:14.578Z,34.30
2022-08-27T19:41:42.651Z,31.35
2022-08-27T19:44:11.045Z,37.53
2022-08-27T19:46:39.598Z,34.72
2022-08-27T19:49:07.802Z,35.05
2022-08-27T19:51:37.391Z,29.50
2022-08-27T19:54:06.042Z,25.50
2022-08-27T19:56:34.646Z,33.72
2022-08-27T19:59:16.266Z,31.60
2022-08-27T20:01:50.542Z,32.55
2022-08-27T20:04:18.961Z,27.65
2022-08-27T20:06:48.493Z,32.20
2022-08-27T20:09:18.534Z,32.53
2022-08-27T20:11:47.669Z,31.17
2022-08-27T20:14:16.775Z,38.00
2022-08-27T20:16:46.225Z,34.60
2022-08-27T20:19:15.959Z,30.15
2022-08-27T20:21:43.993Z,27.92
2022-08-27T20:24:13.851Z,32.83
2022-08-27T20:26:42.702Z,34.38
2022-08-27T20:29:11.901Z,36.05
2022-08-27T20:31:43.242Z,31.05
2022-08-27T20:34:11.414Z,34.35
2022-08-27T20:36:39.586Z,27.77
2022-08-27T20:39:07.760Z,37.53
2022-08-27T20:41:37.229Z,29.48
2022-08-27T20:44:07.714Z,34.65
2022-08-27T20:46:36.429Z,41.72
2022-08-27T20:49:06.166Z,36.20
2022-08-27T20:51:53.444Z,28.80
2022-08-27T20:54:22.564Z,29.40
2022-08-27T20:56:53.287Z,30.20
2022-08-27T20:59:39.221Z,27.42
2022-08-27T21:02:09.401Z,35.35
2022-08-27T21:04:39.349Z,35.20
2022-08-27T21:07:07.669Z,31.55
2022-08-27T21:09:36.395Z,34.72
2022-08-27T21:12:25.707Z,32.08
2022-08-27T21:14:56.161Z,27.33
2022-08-27T21:17:25.515Z,29.63
2022-08-27T21:19:53.967Z,37.47
2022-08-27T21:22:22.558Z,28.17
2022-08-27T21:24:51.020Z,35.65
2022-08-27T21:27:21.164Z,33.70
2022-08-27T21:29:51.210Z,33.47
2022-08-27T21:32:21.101Z,34.03
2022-08-27T21:34:49.300Z,34.65
2022-08-27T21:37:17.555Z,26.50
2022-08-27T21:39:45.738Z,29.00
2022-08-27T21:42:15.622Z,29.05
2022-08-27T21:44:45.193Z,35.35
2022-08-27T21:47:14.766Z,27.10
2022-08-27T21:49:42.862Z,31.40
2022-08-27T21:52:11.996Z,34.17
2022-08-27T21:54:42.289Z,35.15
2022-08-27T21:57:14.217Z,40.10
2022-08-27T21:59:45.999Z,32.22
2022-08-27T22:02:38.770Z,25.92
2022-08-27T22:05:05.061Z,33.53
2022-08-27T22:07:33.072Z,22.13
2022-08-27T22:10:01.102Z,29.88
2022-08-27T22:12:29.096Z,28.73
2022-08-27T22:14:57.159Z,25.40
2022-08-27T22:17:26.822Z,28.95
2022-08-27T22:19:54.940Z,29.13
2022-08-27T22:22:23.006Z,27.00
2022-08-27T22:24:51.093Z,33.78
2022-08-27T22:27:19.547Z,41.03
2022-08-27T22:29:47.556Z,31.30
2022-08-27T22:32:15.576Z,26.85
2022-08-27T22:34:44.977Z,30.48
2022-08-27T22:37:13.012Z,26.92
2022-08-27T22:39:41.083Z,25.35
2022-08-27T22:42:09.660Z,29.92
2022-08-27T22:44:41.122Z,30.60
2022-08-27T22:47:09.371Z,32.22
2022-08-27T22:49:37.542Z,25.27
2022-08-27T22:52:07.063Z,27.90
2022-08-27T22:54:35.371Z,29.77
2022-08-27T22:57:03.393Z,36.70
2022-08-27T22:59:31.415Z,26.45
2022-08-27T23:01:59.586Z,29.42
2022-08-27T23:04:44.887Z,34.53
2022-08-27T23:07:17.394Z,31.58
2022-08-27T23:09:45.535Z,28.75
2022-08-27T23:12:14.069Z,32.97
2022-08-27T23:14:42.091Z,34.53
2022-08-27T23:17:10.088Z,33.60
2022-08-27T23:19:38.064Z,31.85
2022-08-27T23:22:07.282Z,36.72
2022-08-27T23:24:57.497Z,28.60
2022-08-27T23:27:30.651Z,33.17
2022-08-27T23:30:00.679Z,26.50
2022-08-27T23:32:29.856Z,33.67
2022-08-27T23:34:58.237Z,28.17
2022-08-27T23:37:27.370Z,37.30
2022-08-27T23:39:56.850Z,28.33
2022-08-27T23:42:25.456Z,35.05
2022-08-27T23:44:53.869Z,31.90
2022-08-27T23:47:22.030Z,31.35
2022-08-27T23:49:50.017Z,29.52
2022-08-27T23:52:18.234Z,25.48
2022-08-27T23:54:46.302Z,34.78
2022-08-27T23:57:15.814Z,30.58
2022-08-27T23:59:43.905Z,25.92
